createdAt,value
2023-10-30T00:02:21.890Z,2.20
2023-10-30T00:04:50.426Z,1.15
2023-10-30T00:07:19.322Z,2.78
2023-10-30T00:09:46.481Z,1.48
2023-10-30T00:12:13.626Z,0.43
2023-10-30T00:14:40.653Z,0.65
2023-10-30T00:17:07.678Z,0.98
2023-10-30T00:19:35.000Z,0.95
2023-10-30T00:22:02.019Z,0.32
2023-10-30T00:24:31.080Z,1.00
2023-10-30T00:26:58.159Z,0.68
2023-10-30T00:29:25.357Z,0.75
2023-10-30T00:31:52.451Z,1.67
2023-10-30T00:34:19.652Z,1.13
2023-10-30T00:36:46.745Z,0.77
2023-10-30T00:39:13.857Z,0.55
2023-10-30T00:41:40.879Z,1.38
2023-10-30T00:44:07.973Z,1.65
2023-10-30T00:46:35.012Z,0.73
2023-10-30T00:49:02.012Z,2.45
2023-10-30T00:51:29.039Z,0.28
2023-10-30T00:53:56.109Z,2.45
2023-10-30T00:56:23.108Z,1.23
2023-10-30T00:58:50.107Z,1.48
2023-10-30T01:01:18.331Z,1.17
2023-10-30T01:03:46.833Z,0.50
2023-10-30T01:06:13.977Z,0.73
2023-10-30T01:08:41.532Z,0.77
2023-10-30T01:11:08.544Z,1.67
2023-10-30T01:13:37.378Z,2.03
2023-10-30T01:16:06.573Z,1.65
2023-10-30T01:18:33.846Z,1.02
2023-10-30T01:21:00.960Z,1.35
2023-10-30T01:23:28.078Z,2.42
2023-10-30T01:25:55.070Z,3.20
2023-10-30T01:28:22.092Z,0.65
2023-10-30T01:30:49.096Z,1.67
2023-10-30T01:33:16.177Z,1.65
2023-10-30T01:35:43.292Z,3.70
2023-10-30T01:38:10.340Z,2.50
2023-10-30T01:40:37.484Z,3.97
2023-10-30T01:43:11.081Z,2.33
2023-10-30T01:45:38.176Z,1.42
2023-10-30T01:48:05.851Z,2.70
2023-10-30T01:50:33.855Z,5.35
2023-10-30T01:53:03.397Z,0.80
2023-10-30T01:55:31.311Z,4.28
2023-10-30T01:57:58.470Z,1.52
2023-10-30T02:00:26.107Z,6.30
2023-10-30T02:02:54.616Z,2.72
2023-10-30T02:05:21.771Z,2.33
2023-10-30T02:07:49.286Z,3.05
2023-10-30T02:10:16.485Z,1.70
2023-10-30T02:12:44.221Z,4.10
2023-10-30T02:15:11.410Z,4.45
2023-10-30T02:17:38.547Z,4.05
2023-10-30T02:20:06.216Z,2.30
2023-10-30T02:22:33.228Z,4.65
2023-10-30T02:25:00.515Z,3.03
2023-10-30T02:27:27.586Z,2.40
2023-10-30T02:29:54.640Z,4.40
2023-10-30T02:32:21.792Z,3.70
2023-10-30T02:34:48.865Z,2.00
2023-10-30T02:37:16.976Z,2.13
2023-10-30T02:39:44.014Z,6.93
2023-10-30T02:42:11.320Z,3.17
2023-10-30T02:44:38.497Z,4.82
2023-10-30T02:47:05.598Z,3.80
2023-10-30T02:49:32.617Z,4.25
2023-10-30T02:52:00.159Z,4.03
2023-10-30T02:54:27.236Z,2.45
2023-10-30T02:56:54.573Z,1.73
2023-10-30T02:59:21.618Z,2.78
2023-10-30T03:01:48.669Z,3.17
2023-10-30T03:04:18.370Z,2.17
2023-10-30T03:06:45.865Z,2.47
2023-10-30T03:09:12.935Z,2.40
2023-10-30T03:11:39.919Z,3.15
2023-10-30T03:14:07.314Z,3.83
2023-10-30T03:16:34.366Z,1.85
2023-10-30T03:19:01.441Z,2.60
2023-10-30T03:21:28.521Z,0.85
2023-10-30T03:23:56.247Z,1.95
2023-10-30T03:26:25.433Z,3.17
2023-10-30T03:28:52.741Z,4.10
2023-10-30T03:31:19.857Z,1.25
2023-10-30T03:33:49.042Z,0.60
2023-10-30T03:36:25.086Z,1.45
2023-10-30T03:38:52.559Z,1.27
2023-10-30T03:41:20.511Z,3.33
2023-10-30T03:43:48.151Z,1.08
2023-10-30T03:46:15.458Z,3.03
2023-10-30T03:48:43.676Z,2.50
2023-10-30T03:51:10.787Z,2.65
2023-10-30T03:53:37.788Z,4.10
2023-10-30T03:56:08.408Z,1.00
2023-10-30T04:01:09.949Z,0.80
2023-10-30T04:03:37.139Z,2.00
2023-10-30T04:06:05.103Z,2.03
2023-10-30T04:08:32.372Z,3.35
2023-10-30T04:10:59.537Z,2.00
2023-10-30T04:13:26.601Z,2.00
2023-10-30T04:15:53.688Z,1.02
2023-10-30T04:18:20.893Z,1.08
2023-10-30T04:20:47.989Z,1.50
2023-10-30T04:23:14.982Z,2.55
2023-10-30T04:25:41.953Z,1.15
2023-10-30T04:28:09.026Z,1.35
2023-10-30T04:30:36.667Z,2.85
2023-10-30T04:33:03.926Z,1.00
2023-10-30T04:35:30.963Z,2.13
2023-10-30T04:37:58.017Z,2.58
2023-10-30T04:40:25.067Z,3.55
2023-10-30T04:42:52.088Z,3.28
2023-10-30T04:45:19.370Z,1.67
2023-10-30T04:47:46.504Z,1.13
2023-10-30T04:50:13.640Z,2.72
2023-10-30T04:52:40.660Z,1.20
2023-10-30T04:55:08.074Z,1.05
2023-10-30T04:57:35.064Z,1.90
2023-10-30T05:00:03.819Z,1.80
2023-10-30T05:02:30.988Z,0.77
2023-10-30T05:04:57.992Z,1.13
2023-10-30T05:07:25.013Z,2.58
2023-10-30T05:09:52.417Z,2.78
2023-10-30T05:12:19.755Z,0.60
2023-10-30T05:14:46.732Z,1.13
2023-10-30T05:17:14.317Z,1.33
2023-10-30T05:19:41.376Z,3.92
2023-10-30T05:22:08.393Z,0.60
2023-10-30T05:24:35.496Z,1.10
2023-10-30T05:27:02.549Z,1.23
2023-10-30T05:29:29.527Z,1.70
2023-10-30T05:31:56.569Z,1.05
2023-10-30T05:34:25.581Z,1.30
2023-10-30T05:36:52.686Z,1.52
2023-10-30T05:39:19.713Z,1.52
2023-10-30T05:41:47.296Z,1.30
2023-10-30T05:44:14.354Z,1.63
2023-10-30T05:46:41.377Z,1.98
2023-10-30T05:49:08.615Z,1.52
2023-10-30T05:51:35.618Z,0.50
2023-10-30T05:54:02.606Z,0.20
2023-10-30T05:56:29.614Z,0.47
2023-10-30T05:58:58.372Z,0.50
2023-10-30T06:01:25.461Z,0.45
2023-10-30T06:03:52.520Z,0.55
2023-10-30T06:06:19.676Z,0.77
2023-10-30T06:08:46.682Z,0.50
2023-10-30T06:11:13.729Z,0.85
2023-10-30T06:13:40.728Z,0.75
2023-10-30T06:16:07.833Z,0.82
2023-10-30T06:18:34.885Z,1.02
2023-10-30T06:21:02.950Z,0.65
2023-10-30T06:23:29.957Z,0.47
2023-10-30T06:25:57.009Z,0.90
2023-10-30T06:28:24.029Z,0.40
2023-10-30T06:30:51.381Z,2.67
2023-10-30T06:33:18.480Z,1.08
2023-10-30T06:35:45.530Z,1.00
2023-10-30T06:38:12.508Z,1.05
2023-10-30T06:40:39.520Z,0.45
2023-10-30T06:43:06.485Z,1.10
2023-10-30T06:45:33.534Z,0.40
2023-10-30T06:48:00.595Z,0.75
2023-10-30T06:50:27.838Z,0.60
2023-10-30T06:52:54.902Z,0.30
2023-10-30T06:55:21.870Z,1.50
2023-10-30T06:57:48.893Z,2.40
2023-10-30T07:00:16.168Z,2.95
2023-10-30T07:02:43.297Z,2.80
2023-10-30T07:05:10.360Z,9.20
2023-10-30T07:07:37.552Z,7.43
2023-10-30T07:10:05.140Z,2.88
2023-10-30T07:12:32.228Z,1.65
2023-10-30T07:14:59.248Z,1.75
2023-10-30T07:17:26.371Z,2.40
2023-10-30T07:19:53.577Z,0.82
2023-10-30T07:22:21.022Z,0.88
2023-10-30T07:24:48.254Z,0.65
2023-10-30T07:27:17.701Z,1.30
2023-10-30T07:29:46.512Z,1.38
2023-10-30T07:32:13.578Z,1.30
2023-10-30T07:34:42.700Z,2.58
2023-10-30T07:37:09.698Z,0.93
2023-10-30T07:39:36.895Z,1.63
2023-10-30T07:42:04.222Z,0.45
2023-10-30T07:44:31.200Z,2.30
2023-10-30T07:46:58.355Z,3.35
2023-10-30T07:49:25.460Z,1.65
2023-10-30T07:51:52.642Z,0.98
2023-10-30T07:54:19.711Z,1.55
2023-10-30T07:56:46.807Z,0.77
2023-10-30T07:59:13.794Z,0.50
2023-10-30T08:01:41.203Z,0.63
2023-10-30T08:04:10.768Z,0.50
2023-10-30T08:06:38.152Z,1.88
2023-10-30T08:09:06.152Z,2.20
2023-10-30T08:11:33.541Z,0.73
2023-10-30T08:14:00.632Z,5.60
2023-10-30T08:16:27.759Z,1.58
2023-10-30T08:18:54.893Z,0.52
2023-10-30T08:21:21.927Z,2.30
2023-10-30T08:23:48.964Z,1.63
2023-10-30T08:26:15.997Z,1.20
2023-10-30T08:28:45.799Z,0.77
2023-10-30T08:31:12.954Z,0.30
2023-10-30T08:33:40.055Z,2.55
2023-10-30T08:36:07.497Z,1.00
2023-10-30T08:38:34.505Z,1.27
2023-10-30T08:41:01.536Z,0.95
2023-10-30T08:43:28.519Z,2.08
2023-10-30T08:45:55.691Z,0.88
2023-10-30T08:48:22.861Z,1.90
2023-10-30T08:50:50.653Z,1.30
2023-10-30T08:53:18.358Z,1.60
2023-10-30T08:55:45.762Z,1.17
2023-10-30T08:58:12.749Z,1.25
2023-10-30T09:00:39.807Z,2.42
2023-10-30T09:03:07.321Z,0.70
2023-10-30T09:05:34.645Z,1.00
2023-10-30T09:08:01.753Z,0.70
2023-10-30T09:10:33.300Z,1.00
2023-10-30T09:13:00.413Z,3.60
2023-10-30T09:15:28.594Z,0.55
2023-10-30T09:17:58.142Z,1.73
2023-10-30T09:20:25.180Z,0.88
2023-10-30T09:22:52.201Z,1.58
2023-10-30T09:25:19.392Z,1.17
2023-10-30T09:27:46.952Z,1.92
2023-10-30T09:30:17.678Z,1.63
2023-10-30T09:32:44.901Z,2.65
2023-10-30T09:35:12.037Z,2.97
2023-10-30T09:37:40.292Z,1.35
2023-10-30T09:40:08.243Z,1.80
2023-10-30T09:42:37.271Z,3.05
2023-10-30T09:45:07.623Z,2.08
2023-10-30T09:47:35.405Z,3.78
2023-10-30T09:50:04.153Z,2.25
2023-10-30T09:52:32.607Z,1.85
2023-10-30T09:55:00.760Z,1.52
2023-10-30T09:57:29.710Z,1.35
2023-10-30T09:59:59.079Z,3.45
2023-10-30T10:02:26.685Z,1.55
2023-10-30T10:04:53.801Z,3.05
2023-10-30T10:07:22.630Z,4.50
2023-10-30T10:10:02.926Z,2.70
2023-10-30T10:12:32.413Z,2.92
2023-10-30T10:14:59.610Z,3.05
2023-10-30T10:17:27.011Z,4.72
2023-10-30T10:19:54.077Z,2.88
2023-10-30T10:22:32.417Z,2.55
2023-10-30T10:25:01.728Z,2.20
2023-10-30T10:27:29.065Z,2.42
2023-10-30T10:29:57.846Z,2.40
2023-10-30T10:32:29.455Z,4.70
2023-10-30T10:35:05.901Z,3.40
2023-10-30T10:37:34.928Z,2.90
2023-10-30T10:40:03.907Z,1.30
2023-10-30T10:42:34.260Z,1.58
2023-10-30T10:45:03.066Z,2.97
2023-10-30T10:47:30.823Z,0.95
2023-10-30T10:49:58.378Z,1.35
2023-10-30T10:52:32.462Z,1.75
2023-10-30T10:55:06.814Z,1.50
2023-10-30T10:57:50.658Z,2.00
2023-10-30T11:00:18.584Z,2.22
2023-10-30T11:02:50.532Z,2.67
2023-10-30T11:05:18.681Z,3.90
2023-10-30T11:08:17.040Z,2.30
2023-10-30T11:10:52.136Z,1.90
2023-10-30T11:14:10.109Z,1.50
2023-10-30T11:16:50.952Z,3.83
2023-10-30T11:21:51.894Z,2.38
2023-10-30T11:24:54.803Z,3.53
2023-10-30T11:27:27.653Z,1.73
2023-10-30T11:30:04.484Z,1.40
2023-10-30T11:32:37.597Z,2.90
2023-10-30T11:35:05.097Z,2.47
2023-10-30T11:37:34.033Z,1.38
2023-10-30T11:40:06.138Z,3.70
2023-10-30T11:42:35.604Z,2.50
2023-10-30T11:45:24.205Z,0.88
2023-10-30T11:48:27.085Z,1.30
2023-10-30T11:50:58.224Z,1.15
2023-10-30T11:53:27.256Z,1.15
2023-10-30T11:55:58.525Z,1.75
2023-10-30T11:58:25.786Z,1.85
2023-10-30T12:00:52.904Z,1.67
2023-10-30T12:03:20.024Z,2.05
2023-10-30T12:05:47.984Z,1.90
2023-10-30T12:08:15.124Z,1.40
2023-10-30T12:10:42.331Z,1.17
2023-10-30T12:13:11.222Z,1.20
2023-10-30T12:15:38.682Z,2.47
2023-10-30T12:18:08.714Z,1.98
2023-10-30T12:20:35.739Z,2.03
2023-10-30T12:23:02.797Z,1.83
2023-10-30T12:25:29.818Z,4.10
2023-10-30T12:28:05.022Z,1.63
2023-10-30T12:30:36.775Z,2.78
2023-10-30T12:33:04.214Z,1.00
2023-10-30T12:35:31.794Z,0.90
2023-10-30T12:37:58.846Z,3.85
2023-10-30T12:40:26.008Z,1.48
2023-10-30T12:42:54.583Z,2.80
2023-10-30T12:45:22.407Z,1.67
2023-10-30T12:47:51.825Z,0.55
2023-10-30T12:50:19.700Z,1.30
2023-10-30T12:52:47.063Z,1.48
2023-10-30T12:55:14.426Z,0.98
2023-10-30T12:57:41.920Z,0.70
2023-10-30T13:00:11.101Z,1.65
2023-10-30T13:02:38.958Z,1.52
2023-10-30T13:05:07.212Z,1.23
2023-10-30T13:07:34.398Z,1.70
2023-10-30T13:10:02.840Z,1.80
2023-10-30T13:12:31.817Z,1.17
2023-10-30T13:14:59.098Z,1.10
2023-10-30T13:17:26.252Z,1.02
2023-10-30T13:19:54.122Z,2.30
2023-10-30T13:22:21.138Z,0.88
2023-10-30T13:24:50.311Z,1.17
2023-10-30T13:27:17.661Z,1.75
2023-10-30T13:29:44.987Z,2.00
2023-10-30T13:32:12.100Z,1.27
2023-10-30T13:34:39.205Z,1.08
2023-10-30T13:37:06.484Z,3.28
2023-10-30T13:39:33.500Z,1.98
2023-10-30T13:42:00.600Z,1.05
2023-10-30T13:44:27.660Z,1.10
2023-10-30T13:46:55.109Z,2.28
2023-10-30T13:49:22.204Z,2.42
2023-10-30T13:51:49.566Z,1.33
2023-10-30T13:54:16.689Z,1.20
2023-10-30T13:56:43.641Z,1.42
2023-10-30T13:59:10.722Z,3.35
2023-10-30T14:01:37.820Z,1.50
2023-10-30T14:04:05.277Z,1.15
2023-10-30T14:06:32.414Z,2.30
2023-10-30T14:08:59.785Z,1.52
2023-10-30T14:11:26.910Z,1.60
2023-10-30T14:13:54.239Z,1.58
2023-10-30T14:16:21.628Z,2.15
2023-10-30T14:18:50.406Z,1.70
2023-10-30T14:21:17.720Z,3.67
2023-10-30T14:23:44.883Z,1.83
2023-10-30T14:26:11.956Z,0.80
2023-10-30T14:28:39.071Z,3.20
2023-10-30T14:31:06.205Z,1.98
2023-10-30T14:33:33.435Z,1.70
2023-10-30T14:36:00.847Z,7.10
2023-10-30T14:38:29.217Z,1.15
2023-10-30T14:40:56.290Z,2.40
2023-10-30T14:43:23.321Z,1.15
2023-10-30T14:45:50.640Z,1.77
2023-10-30T14:48:17.685Z,0.90
2023-10-30T14:50:44.710Z,1.35
2023-10-30T14:53:11.786Z,1.40
2023-10-30T14:55:38.797Z,1.00
2023-10-30T14:58:05.929Z,1.02
2023-10-30T15:00:33.057Z,2.10
2023-10-30T15:03:00.373Z,1.55
2023-10-30T15:05:28.599Z,1.63
2023-10-30T15:07:56.987Z,1.10
2023-10-30T15:10:24.463Z,2.33
2023-10-30T15:12:51.704Z,2.10
2023-10-30T15:15:18.840Z,1.48
2023-10-30T15:17:46.066Z,1.95
2023-10-30T15:20:13.119Z,1.70
2023-10-30T15:22:40.270Z,1.38
2023-10-30T15:25:08.409Z,1.33
2023-10-30T15:27:37.101Z,1.35
2023-10-30T15:30:06.714Z,1.90
2023-10-30T15:32:37.472Z,1.30
2023-10-30T15:37:32.075Z,1.02
2023-10-30T15:39:59.299Z,1.13
2023-10-30T15:42:27.246Z,1.55
2023-10-30T15:44:55.648Z,1.70
2023-10-30T15:47:25.606Z,0.82
2023-10-30T15:49:53.610Z,1.35
2023-10-30T15:59:56.693Z,1.17
2023-10-30T16:02:25.141Z,1.60
2023-10-30T16:07:22.797Z,1.05
2023-10-30T16:09:50.143Z,0.90
2023-10-30T16:12:18.641Z,2.60
2023-10-30T16:14:45.721Z,1.30
2023-10-30T16:20:21.863Z,0.93
2023-10-30T16:22:36.675Z,1.30
2023-10-30T16:25:05.084Z,1.20
2023-10-30T16:27:33.469Z,1.63
2023-10-30T16:30:02.818Z,1.40
2023-10-30T16:32:33.009Z,2.47
2023-10-30T16:35:00.224Z,1.90
2023-10-30T16:37:27.392Z,2.22
2023-10-30T16:39:56.369Z,7.03
2023-10-30T16:42:23.436Z,7.03
2023-10-30T16:44:54.779Z,2.33
2023-10-30T16:47:23.315Z,1.85
2023-10-30T16:49:50.847Z,1.95
2023-10-30T16:52:19.361Z,1.73
2023-10-30T16:54:46.414Z,3.33
2023-10-30T16:57:13.508Z,1.95
2023-10-30T16:59:40.574Z,1.80
2023-10-30T17:02:08.406Z,1.63
2023-10-30T17:04:35.513Z,3.55
2023-10-30T17:07:02.632Z,2.60
2023-10-30T17:09:30.110Z,7.35
2023-10-30T17:11:57.219Z,7.65
2023-10-30T17:14:25.210Z,5.00
2023-10-30T17:16:52.321Z,3.05
2023-10-30T17:19:19.461Z,3.13
2023-10-30T17:21:48.351Z,3.33
2023-10-30T17:24:15.426Z,2.58
2023-10-30T17:26:42.522Z,2.78
2023-10-30T17:29:09.542Z,2.63
2023-10-30T17:31:36.831Z,4.35
2023-10-30T17:34:06.258Z,3.53
2023-10-30T17:36:34.427Z,3.27
2023-10-30T17:39:08.348Z,4.50
2023-10-30T17:41:35.451Z,4.80
2023-10-30T17:44:02.574Z,3.78
2023-10-30T17:46:30.804Z,5.60
2023-10-30T17:48:58.378Z,3.10
2023-10-30T17:51:25.937Z,5.05
2023-10-30T17:53:53.035Z,6.38
2023-10-30T17:56:20.141Z,5.22
2023-10-30T17:58:47.335Z,4.22
2023-10-30T18:01:17.588Z,4.05
2023-10-30T18:03:46.330Z,4.60
2023-10-30T18:06:13.381Z,4.22
2023-10-30T18:08:40.590Z,3.90
2023-10-30T18:11:07.874Z,4.10
2023-10-30T18:13:35.082Z,6.78
2023-10-30T18:16:03.300Z,5.15
2023-10-30T18:18:32.333Z,5.25
2023-10-30T18:20:59.351Z,6.55
2023-10-30T18:23:28.314Z,4.63
2023-10-30T18:25:55.560Z,7.95
2023-10-30T18:28:24.632Z,5.53
2023-10-30T18:30:52.320Z,7.93
2023-10-30T18:33:19.482Z,6.90
2023-10-30T18:35:48.254Z,6.53
2023-10-30T18:38:16.985Z,5.82
2023-10-30T18:40:44.846Z,6.63
2023-10-30T18:43:13.305Z,6.00
2023-10-30T18:45:42.318Z,8.55
2023-10-30T18:48:09.822Z,6.78
2023-10-30T18:50:36.855Z,7.30
2023-10-30T18:53:04.305Z,8.02
2023-10-30T18:55:31.407Z,6.95
2023-10-30T18:58:02.319Z,6.10
2023-10-30T19:00:29.434Z,5.90
2023-10-30T19:02:56.667Z,5.43
2023-10-30T19:05:25.405Z,6.03
2023-10-30T19:07:52.553Z,5.80
2023-10-30T19:10:24.273Z,6.50
2023-10-30T19:12:51.495Z,5.88
2023-10-30T19:15:24.300Z,6.40
2023-10-30T19:17:52.189Z,6.75
2023-10-30T19:20:20.369Z,8.18
2023-10-30T19:22:47.604Z,7.15
2023-10-30T19:25:16.432Z,5.97
2023-10-30T19:27:46.367Z,5.60
2023-10-30T19:30:15.670Z,6.22
2023-10-30T19:32:42.960Z,9.80
2023-10-30T19:35:11.154Z,6.13
2023-10-30T19:37:39.384Z,6.38
2023-10-30T19:40:08.284Z,7.03
2023-10-30T19:42:36.064Z,6.75
2023-10-30T19:45:03.567Z,5.78
2023-10-30T19:47:30.704Z,5.63
2023-10-30T19:49:59.404Z,5.50
2023-10-30T19:52:27.243Z,7.85
2023-10-30T19:54:57.502Z,7.75
2023-10-30T19:57:27.264Z,7.55
2023-10-30T19:59:54.379Z,8.32
2023-10-30T20:02:23.301Z,7.68
2023-10-30T20:04:52.303Z,7.30
2023-10-30T20:07:19.381Z,5.82
2023-10-30T20:09:52.418Z,5.93
2023-10-30T20:12:27.132Z,9.18
2023-10-30T20:14:56.259Z,5.57
2023-10-30T20:17:23.354Z,6.45
2023-10-30T20:19:50.810Z,5.15
2023-10-30T20:22:20.110Z,5.07
2023-10-30T20:24:47.535Z,4.78
2023-10-30T20:27:14.597Z,7.25
2023-10-30T20:29:42.332Z,5.38
2023-10-30T20:32:10.648Z,4.80
2023-10-30T20:34:37.847Z,4.78
2023-10-30T20:37:04.995Z,4.68
2023-10-30T20:39:32.153Z,4.72
2023-10-30T20:41:59.177Z,4.50
2023-10-30T20:44:28.108Z,5.65
2023-10-30T20:46:55.304Z,3.38
2023-10-30T20:49:22.417Z,3.63
2023-10-30T20:51:50.076Z,3.45
2023-10-30T20:54:17.115Z,3.85
2023-10-30T20:56:47.236Z,5.60
2023-10-30T20:59:15.744Z,3.72
2023-10-30T21:01:44.371Z,3.50
2023-10-30T21:04:30.567Z,4.22
2023-10-30T21:07:16.201Z,4.65
2023-10-30T21:10:03.451Z,4.45
2023-10-30T21:12:31.090Z,4.15
2023-10-30T21:15:02.088Z,3.97
2023-10-30T21:17:29.662Z,4.90
2023-10-30T21:19:56.920Z,4.85
2023-10-30T21:22:24.035Z,4.03
2023-10-30T21:24:51.093Z,3.47
2023-10-30T21:27:19.277Z,4.40
2023-10-30T21:29:48.402Z,5.75
2023-10-30T21:32:15.525Z,3.33
2023-10-30T21:34:42.609Z,3.00
2023-10-30T21:37:09.893Z,2.70
2023-10-30T21:39:36.990Z,2.88
2023-10-30T21:42:04.451Z,2.30
2023-10-30T21:44:31.454Z,1.98
2023-10-30T21:46:58.594Z,2.47
2023-10-30T21:49:27.216Z,2.13
2023-10-30T21:51:54.266Z,2.28
2023-10-30T21:54:23.597Z,1.67
2023-10-30T21:56:50.675Z,1.58
2023-10-30T21:59:17.738Z,3.00
2023-10-30T22:01:44.877Z,1.65
2023-10-30T22:04:12.032Z,3.38
2023-10-30T22:06:39.075Z,1.65
2023-10-30T22:09:06.153Z,2.75
2023-10-30T22:11:34.465Z,2.50
2023-10-30T22:14:01.908Z,3.45
2023-10-30T22:16:29.106Z,3.67
2023-10-30T22:18:56.149Z,3.92
2023-10-30T22:21:23.343Z,3.67
2023-10-30T22:23:50.453Z,3.00
2023-10-30T22:26:17.530Z,3.20
2023-10-30T22:28:48.086Z,3.67
2023-10-30T22:33:42.494Z,3.80
2023-10-30T22:36:09.804Z,3.85
2023-10-30T22:38:36.792Z,4.05
2023-10-30T22:41:04.014Z,4.78
2023-10-30T22:43:31.155Z,3.67
2023-10-30T22:45:58.424Z,2.92
2023-10-30T22:48:25.633Z,3.50
2023-10-30T22:50:52.631Z,3.40
2023-10-30T22:53:19.711Z,2.38
2023-10-30T22:55:46.934Z,3.28
2023-10-30T22:58:14.110Z,2.90
2023-10-30T23:00:43.912Z,1.77
2023-10-30T23:03:11.334Z,1.60
2023-10-30T23:05:38.868Z,1.48
2023-10-30T23:08:07.172Z,1.50
2023-10-30T23:10:34.821Z,2.47
2023-10-30T23:13:02.086Z,1.27
2023-10-30T23:15:29.206Z,1.10
2023-10-30T23:17:56.253Z,1.00
2023-10-30T23:20:25.333Z,0.80
2023-10-30T23:22:54.136Z,1.35
2023-10-30T23:25:21.349Z,1.17
2023-10-30T23:27:48.481Z,1.27
2023-10-30T23:30:15.651Z,1.20
2023-10-30T23:32:43.297Z,0.93
2023-10-30T23:35:11.671Z,1.00
2023-10-30T23:37:38.733Z,1.48
2023-10-30T23:40:06.761Z,1.52
2023-10-30T23:42:33.805Z,2.13
2023-10-30T23:45:02.916Z,0.70
2023-10-30T23:47:30.142Z,1.23
2023-10-30T23:49:57.529Z,1.05
2023-10-30T23:52:24.550Z,0.70
2023-10-30T23:54:51.790Z,0.70
2023-10-30T23:57:19.250Z,2.30
2023-10-30T23:59:46.249Z,1.10
